sensor_id;sensor_type;location;lat;lon;timestamp;pressure;altitude;pressure_sealevel;temperature;humidity
20620;BME280;10469;42.720;23.252;2024-02-15T00:00:12;95330.72;;;3.36;100.00
20620;BME280;10469;42.720;23.252;2024-02-15T00:02:38;95331.63;;;3.43;100.00
20620;BME280;10469;42.720;23.252;2024-02-15T00:05:04;95333.63;;;3.26;100.00
20620;BME280;10469;42.720;23.252;2024-02-15T00:07:33;95335.25;;;3.27;100.00
20620;BME280;10469;42.720;23.252;2024-02-15T00:09:58;95330.63;;;3.30;100.00
20620;BME280;10469;42.720;23.252;2024-02-15T00:12:24;95314.22;;;3.11;100.00
20620;BME280;10469;42.720;23.252;2024-02-15T00:59:37;95345.31;;;3.17;100.00
20620;BME280;10469;42.720;23.252;2024-02-15T01:02:03;95344.16;;;3.35;100.00
20620;BME280;10469;42.720;23.252;2024-02-15T01:04:30;95347.06;;;3.25;100.00
20620;BME280;10469;42.720;23.252;2024-02-15T01:06:56;95350.00;;;3.30;100.00
20620;BME280;10469;42.720;23.252;2024-02-15T01:09:22;95352.25;;;3.18;100.00
20620;BME280;10469;42.720;23.252;2024-02-15T01:11:48;95328.78;;;3.15;100.00
20620;BME280;10469;42.720;23.252;2024-02-15T01:14:15;95337.53;;;3.16;100.00
20620;BME280;10469;42.720;23.252;2024-02-15T01:16:41;95345.69;;;3.29;100.00
20620;BME280;10469;42.720;23.252;2024-02-15T01:19:07;95332.91;;;3.33;100.00
20620;BME280;10469;42.720;23.252;2024-02-15T01:21:32;95335.44;;;3.26;100.00
20620;BME280;10469;42.720;23.252;2024-02-15T01:23:59;95347.59;;;3.20;100.00
20620;BME280;10469;42.720;23.252;2024-02-15T01:26:26;95344.22;;;3.26;100.00
20620;BME280;10469;42.720;23.252;2024-02-15T01:28:52;95342.94;;;3.22;100.00
20620;BME280;10469;42.720;23.252;2024-02-15T01:31:17;95333.34;;;3.21;100.00
20620;BME280;10469;42.720;23.252;2024-02-15T01:33:44;95338.44;;;3.23;100.00
20620;BME280;10469;42.720;23.252;2024-02-15T01:36:16;95346.91;;;3.04;100.00
20620;BME280;10469;42.720;23.252;2024-02-15T01:38:43;95335.13;;;3.06;100.00
20620;BME280;10469;42.720;23.252;2024-02-15T01:41:09;95334.91;;;3.16;100.00
20620;BME280;10469;42.720;23.252;2024-02-15T01:43:35;95335.78;;;3.08;100.00
20620;BME280;10469;42.720;23.252;2024-02-15T01:46:06;95341.91;;;3.09;100.00
20620;BME280;10469;42.720;23.252;2024-02-15T01:48:32;95342.47;;;3.19;100.00
20620;BME280;10469;42.720;23.252;2024-02-15T01:50:58;95305.59;;;2.94;100.00
20620;BME280;10469;42.720;23.252;2024-02-15T01:53:25;95339.38;;;3.15;100.00
20620;BME280;10469;42.720;23.252;2024-02-15T01:55:52;95349.56;;;3.04;100.00
20620;BME280;10469;42.720;23.252;2024-02-15T01:58:20;95355.78;;;3.11;100.00
20620;BME280;10469;42.720;23.252;2024-02-15T02:00:47;95352.47;;;2.94;100.00
20620;BME280;10469;42.720;23.252;2024-02-15T02:03:14;95335.91;;;2.92;100.00
20620;BME280;10469;42.720;23.252;2024-02-15T02:05:41;95350.78;;;2.93;100.00
20620;BME280;10469;42.720;23.252;2024-02-15T02:08:07;95355.69;;;3.04;100.00
20620;BME280;10469;42.720;23.252;2024-02-15T02:10:37;95353.38;;;3.01;100.00
20620;BME280;10469;42.720;23.252;2024-02-15T02:13:02;95361.56;;;3.14;100.00
20620;BME280;10469;42.720;23.252;2024-02-15T02:15:28;95334.16;;;2.84;100.00
20620;BME280;10469;42.720;23.252;2024-02-15T02:17:57;95344.03;;;2.90;100.00
20620;BME280;10469;42.720;23.252;2024-02-15T02:20:25;95361.28;;;2.86;100.00
20620;BME280;10469;42.720;23.252;2024-02-15T02:22:53;95368.75;;;2.83;100.00
20620;BME280;10469;42.720;23.252;2024-02-15T02:25:20;95362.41;;;2.92;100.00
20620;BME280;10469;42.720;23.252;2024-02-15T02:27:47;95355.22;;;2.78;100.00
20620;BME280;10469;42.720;23.252;2024-02-15T02:30:14;95351.72;;;2.85;100.00
20620;BME280;10469;42.720;23.252;2024-02-15T02:32:43;95352.16;;;2.66;100.00
20620;BME280;10469;42.720;23.252;2024-02-15T02:35:08;95360.91;;;2.66;100.00
20620;BME280;10469;42.720;23.252;2024-02-15T02:37:37;95357.75;;;2.48;100.00
20620;BME280;10469;42.720;23.252;2024-02-15T02:40:06;95353.69;;;2.60;100.00
20620;BME280;10469;42.720;23.252;2024-02-15T02:42:36;95368.28;;;2.56;100.00
20620;BME280;10469;42.720;23.252;2024-02-15T02:45:01;95361.16;;;2.57;100.00
20620;BME280;10469;42.720;23.252;2024-02-15T02:47:27;95370.84;;;2.72;100.00
20620;BME280;10469;42.720;23.252;2024-02-15T02:49:53;95367.84;;;2.67;100.00
20620;BME280;10469;42.720;23.252;2024-02-15T02:52:18;95374.69;;;2.62;100.00
20620;BME280;10469;42.720;23.252;2024-02-15T02:54:44;95378.34;;;2.61;100.00
20620;BME280;10469;42.720;23.252;2024-02-15T02:57:09;95326.84;;;2.40;100.00
20620;BME280;10469;42.720;23.252;2024-02-15T02:59:35;95374.59;;;2.55;100.00
20620;BME280;10469;42.720;23.252;2024-02-15T03:02:06;95357.41;;;2.51;100.00
20620;BME280;10469;42.720;23.252;2024-02-15T03:04:33;95375.88;;;2.59;100.00
20620;BME280;10469;42.720;23.252;2024-02-15T03:06:59;95368.88;;;2.66;100.00
20620;BME280;10469;42.720;23.252;2024-02-15T03:09:24;95378.16;;;2.62;100.00
20620;BME280;10469;42.720;23.252;2024-02-15T03:11:55;95381.19;;;2.59;100.00
20620;BME280;10469;42.720;23.252;2024-02-15T03:14:21;95378.00;;;2.64;100.00
20620;BME280;10469;42.720;23.252;2024-02-15T03:16:47;95374.22;;;2.58;100.00
20620;BME280;10469;42.720;23.252;2024-02-15T03:19:13;95375.75;;;2.53;100.00
20620;BME280;10469;42.720;23.252;2024-02-15T03:21:38;95379.09;;;2.46;100.00
20620;BME280;10469;42.720;23.252;2024-02-15T03:24:05;95387.44;;;2.58;100.00
20620;BME280;10469;42.720;23.252;2024-02-15T03:26:32;95384.69;;;2.51;100.00
20620;BME280;10469;42.720;23.252;2024-02-15T03:29:07;95379.22;;;2.53;100.00
20620;BME280;10469;42.720;23.252;2024-02-15T03:31:34;95386.16;;;2.54;100.00
20620;BME280;10469;42.720;23.252;2024-02-15T03:34:03;95381.09;;;2.44;100.00
20620;BME280;10469;42.720;23.252;2024-02-15T03:36:29;95386.78;;;2.33;100.00
20620;BME280;10469;42.720;23.252;2024-02-15T03:38:55;95388.41;;;2.34;100.00
20620;BME280;10469;42.720;23.252;2024-02-15T03:41:21;95351.72;;;2.31;100.00
20620;BME280;10469;42.720;23.252;2024-02-15T03:43:47;95393.16;;;2.47;100.00
20620;BME280;10469;42.720;23.252;2024-02-15T03:46:13;95397.00;;;2.36;100.00
20620;BME280;10469;42.720;23.252;2024-02-15T03:48:42;95377.91;;;2.18;100.00
20620;BME280;10469;42.720;23.252;2024-02-15T03:51:09;95394.72;;;2.33;100.00
20620;BME280;10469;42.720;23.252;2024-02-15T03:53:34;95389.97;;;2.20;100.00
20620;BME280;10469;42.720;23.252;2024-02-15T03:56:03;95386.94;;;2.32;100.00
20620;BME280;10469;42.720;23.252;2024-02-15T03:58:29;95392.00;;;2.41;100.00
20620;BME280;10469;42.720;23.252;2024-02-15T04:00:58;95380.59;;;2.41;100.00
20620;BME280;10469;42.720;23.252;2024-02-15T04:03:24;95390.91;;;2.28;100.00
20620;BME280;10469;42.720;23.252;2024-02-15T04:05:49;95383.13;;;2.34;100.00
20620;BME280;10469;42.720;23.252;2024-02-15T04:08:15;95385.34;;;2.14;100.00
20620;BME280;10469;42.720;23.252;2024-02-15T04:10:42;95398.22;;;2.25;100.00
20620;BME280;10469;42.720;23.252;2024-02-15T04:13:08;95387.63;;;2.25;100.00
20620;BME280;10469;42.720;23.252;2024-02-15T04:15:34;95397.19;;;2.35;100.00
20620;BME280;10469;42.720;23.252;2024-02-15T04:18:00;95400.47;;;2.37;100.00
20620;BME280;10469;42.720;23.252;2024-02-15T04:20:26;95393.91;;;2.24;100.00
20620;BME280;10469;42.720;23.252;2024-02-15T04:22:52;95402.06;;;2.46;100.00
20620;BME280;10469;42.720;23.252;2024-02-15T04:25:20;95385.19;;;2.16;100.00
20620;BME280;10469;42.720;23.252;2024-02-15T04:27:48;95393.25;;;2.22;100.00
20620;BME280;10469;42.720;23.252;2024-02-15T04:30:14;95392.41;;;2.30;100.00
20620;BME280;10469;42.720;23.252;2024-02-15T04:32:43;95399.50;;;2.38;100.00
20620;BME280;10469;42.720;23.252;2024-02-15T04:35:09;95394.38;;;2.28;100.00
20620;BME280;10469;42.720;23.252;2024-02-15T04:37:35;95389.78;;;2.22;100.00
20620;BME280;10469;42.720;23.252;2024-02-15T04:40:02;95409.78;;;2.24;100.00
20620;BME280;10469;42.720;23.252;2024-02-15T04:42:38;95404.34;;;2.26;100.00
20620;BME280;10469;42.720;23.252;2024-02-15T04:45:09;95404.72;;;2.07;100.00
20620;BME280;10469;42.720;23.252;2024-02-15T04:47:39;95411.50;;;2.09;100.00
20620;BME280;10469;42.720;23.252;2024-02-15T04:50:06;95414.66;;;2.05;100.00
20620;BME280;10469;42.720;23.252;2024-02-15T04:52:32;95421.78;;;2.04;100.00
20620;BME280;10469;42.720;23.252;2024-02-15T04:54:58;95423.72;;;2.18;100.00
20620;BME280;10469;42.720;23.252;2024-02-15T04:57:25;95425.72;;;2.16;100.00
20620;BME280;10469;42.720;23.252;2024-02-15T04:59:59;95428.69;;;2.13;100.00
20620;BME280;10469;42.720;23.252;2024-02-15T05:02:25;95410.53;;;2.02;100.00
20620;BME280;10469;42.720;23.252;2024-02-15T05:04:51;95431.53;;;2.12;100.00
20620;BME280;10469;42.720;23.252;2024-02-15T05:07:22;95428.91;;;2.04;100.00
20620;BME280;10469;42.720;23.252;2024-02-15T05:09:49;95436.00;;;2.03;100.00
20620;BME280;10469;42.720;23.252;2024-02-15T05:12:22;95427.75;;;1.98;100.00
20620;BME280;10469;42.720;23.252;2024-02-15T05:14:50;95438.34;;;1.90;100.00
20620;BME280;10469;42.720;23.252;2024-02-15T05:17:16;95439.66;;;1.94;100.00
20620;BME280;10469;42.720;23.252;2024-02-15T05:19:42;95440.97;;;1.98;100.00
20620;BME280;10469;42.720;23.252;2024-02-15T05:22:08;95444.13;;;1.93;100.00
20620;BME280;10469;42.720;23.252;2024-02-15T05:24:34;95437.50;;;1.97;100.00
20620;BME280;10469;42.720;23.252;2024-02-15T05:27:00;95445.22;;;2.07;100.00
20620;BME280;10469;42.720;23.252;2024-02-15T05:29:26;95456.00;;;1.97;100.00
20620;BME280;10469;42.720;23.252;2024-02-15T05:31:53;95443.16;;;1.94;100.00
20620;BME280;10469;42.720;23.252;2024-02-15T05:34:19;95439.28;;;2.05;100.00
20620;BME280;10469;42.720;23.252;2024-02-15T05:36:46;95454.38;;;1.96;100.00
20620;BME280;10469;42.720;23.252;2024-02-15T05:39:14;95455.88;;;1.99;100.00
20620;BME280;10469;42.720;23.252;2024-02-15T05:41:40;95457.31;;;2.10;100.00
20620;BME280;10469;42.720;23.252;2024-02-15T05:44:06;95458.13;;;2.10;100.00
20620;BME280;10469;42.720;23.252;2024-02-15T05:46:34;95458.28;;;2.17;100.00
20620;BME280;10469;42.720;23.252;2024-02-15T05:49:05;95464.06;;;2.20;100.00
20620;BME280;10469;42.720;23.252;2024-02-15T05:51:31;95467.53;;;2.21;100.00
20620;BME280;10469;42.720;23.252;2024-02-15T05:53:57;95463.38;;;2.26;100.00
20620;BME280;10469;42.720;23.252;2024-02-15T05:56:25;95470.63;;;2.24;100.00
20620;BME280;10469;42.720;23.252;2024-02-15T05:58:54;95467.31;;;2.31;100.00
20620;BME280;10469;42.720;23.252;2024-02-15T06:01:20;95466.31;;;2.40;100.00
20620;BME280;10469;42.720;23.252;2024-02-15T06:03:46;95474.94;;;2.34;100.00
20620;BME280;10469;42.720;23.252;2024-02-15T06:06:13;95479.25;;;2.26;100.00
20620;BME280;10469;42.720;23.252;2024-02-15T06:08:39;95482.84;;;2.42;100.00
20620;BME280;10469;42.720;23.252;2024-02-15T06:11:04;95488.47;;;2.39;100.00
20620;BME280;10469;42.720;23.252;2024-02-15T06:13:31;95477.13;;;2.22;100.00
20620;BME280;10469;42.720;23.252;2024-02-15T06:15:57;95489.00;;;2.34;100.00
20620;BME280;10469;42.720;23.252;2024-02-15T06:18:26;95483.34;;;2.37;100.00
20620;BME280;10469;42.720;23.252;2024-02-15T06:20:55;95489.47;;;2.38;100.00
20620;BME280;10469;42.720;23.252;2024-02-15T06:23:27;95485.59;;;2.57;100.00
20620;BME280;10469;42.720;23.252;2024-02-15T06:25:54;95489.09;;;2.49;100.00
20620;BME280;10469;42.720;23.252;2024-02-15T06:28:22;95493.78;;;2.78;100.00
20620;BME280;10469;42.720;23.252;2024-02-15T06:31:10;95499.00;;;2.55;100.00
20620;BME280;10469;42.720;23.252;2024-02-15T06:33:55;95500.47;;;2.58;100.00
20620;BME280;10469;42.720;23.252;2024-02-15T06:36:50;95495.94;;;3.06;100.00
20620;BME280;10469;42.720;23.252;2024-02-15T06:39:34;95483.69;;;4.92;100.00
20620;BME280;10469;42.720;23.252;2024-02-15T06:42:11;95499.56;;;6.00;100.00
20620;BME280;10469;42.720;23.252;2024-02-15T06:44:37;95495.50;;;5.40;100.00
20620;BME280;10469;42.720;23.252;2024-02-15T06:47:05;95502.94;;;5.51;100.00
20620;BME280;10469;42.720;23.252;2024-02-15T06:49:32;95497.25;;;5.33;100.00
20620;BME280;10469;42.720;23.252;2024-02-15T06:51:58;95508.25;;;4.79;100.00
20620;BME280;10469;42.720;23.252;2024-02-15T06:54:27;95495.91;;;4.12;100.00
20620;BME280;10469;42.720;23.252;2024-02-15T06:56:52;95520.06;;;4.91;100.00
20620;BME280;10469;42.720;23.252;2024-02-15T07:04:51;95508.84;;;4.60;100.00
20620;BME280;10469;42.720;23.252;2024-02-15T07:07:17;95503.56;;;7.42;100.00
20620;BME280;10469;42.720;23.252;2024-02-15T07:09:42;95503.41;;;8.69;100.00
20620;BME280;10469;42.720;23.252;2024-02-15T07:12:08;95486.75;;;8.67;100.00
20620;BME280;10469;42.720;23.252;2024-02-15T07:14:34;95492.16;;;8.21;100.00
20620;BME280;10469;42.720;23.252;2024-02-15T07:16:59;95495.81;;;7.60;100.00
20620;BME280;10469;42.720;23.252;2024-02-15T07:19:25;95472.22;;;8.03;100.00
20620;BME280;10469;42.720;23.252;2024-02-15T07:21:52;95489.81;;;8.71;100.00
20620;BME280;10469;42.720;23.252;2024-02-15T07:24:17;95480.56;;;10.88;96.81
20620;BME280;10469;42.720;23.252;2024-02-15T07:26:44;95478.28;;;10.48;95.55
20620;BME280;10469;42.720;23.252;2024-02-15T07:29:10;95470.06;;;11.84;86.48
20620;BME280;10469;42.720;23.252;2024-02-15T07:31:36;95478.59;;;11.32;81.26
20620;BME280;10469;42.720;23.252;2024-02-15T07:34:02;95471.56;;;11.61;82.98
20620;BME280;10469;42.720;23.252;2024-02-15T07:36:31;95461.13;;;12.60;80.67
20620;BME280;10469;42.720;23.252;2024-02-15T07:38:56;95474.59;;;10.86;82.62
20620;BME280;10469;42.720;23.252;2024-02-15T07:41:26;95457.44;;;11.84;79.25
20620;BME280;10469;42.720;23.252;2024-02-15T07:43:53;95474.66;;;8.45;86.99
20620;BME280;10469;42.720;23.252;2024-02-15T07:46:20;95465.53;;;11.17;89.38
20620;BME280;10469;42.720;23.252;2024-02-15T07:48:47;95474.88;;;9.85;90.51
20620;BME280;10469;42.720;23.252;2024-02-15T07:51:17;95470.16;;;8.25;90.94
20620;BME280;10469;42.720;23.252;2024-02-15T07:53:46;95455.72;;;11.11;92.70
20620;BME280;10469;42.720;23.252;2024-02-15T07:56:13;95457.84;;;10.29;85.57
20620;BME280;10469;42.720;23.252;2024-02-15T07:58:40;95451.25;;;10.50;88.35
20620;BME280;10469;42.720;23.252;2024-02-15T08:01:15;95468.34;;;10.49;83.81
20620;BME280;10469;42.720;23.252;2024-02-15T08:03:50;95468.97;;;10.51;84.70
20620;BME280;10469;42.720;23.252;2024-02-15T08:06:16;95446.34;;;11.02;83.63
20620;BME280;10469;42.720;23.252;2024-02-15T08:08:43;95478.75;;;9.89;83.47
20620;BME280;10469;42.720;23.252;2024-02-15T08:11:13;95474.75;;;10.29;84.91
20620;BME280;10469;42.720;23.252;2024-02-15T08:13:45;95473.38;;;9.25;87.19
20620;BME280;10469;42.720;23.252;2024-02-15T08:16:13;95459.97;;;9.64;86.55
20620;BME280;10469;42.720;23.252;2024-02-15T08:18:44;95451.78;;;10.59;85.35
20620;BME280;10469;42.720;23.252;2024-02-15T08:21:11;95442.84;;;11.01;84.48
20620;BME280;10469;42.720;23.252;2024-02-15T08:23:36;95463.50;;;9.58;80.87
20620;BME280;10469;42.720;23.252;2024-02-15T08:26:02;95467.38;;;8.85;88.56
20620;BME280;10469;42.720;23.252;2024-02-15T08:28:28;95452.34;;;8.84;88.62
20620;BME280;10469;42.720;23.252;2024-02-15T08:30:57;95456.63;;;10.68;85.98
20620;BME280;10469;42.720;23.252;2024-02-15T08:33:24;95447.09;;;12.23;75.65
20620;BME280;10469;42.720;23.252;2024-02-15T08:35:49;95455.09;;;9.86;81.97
20620;BME280;10469;42.720;23.252;2024-02-15T08:38:15;95458.78;;;10.60;82.52
20620;BME280;10469;42.720;23.252;2024-02-15T08:40:40;95449.47;;;9.24;84.38
20620;BME280;10469;42.720;23.252;2024-02-15T08:43:06;95457.50;;;9.24;83.60
20620;BME280;10469;42.720;23.252;2024-02-15T08:45:31;95454.22;;;9.60;83.85
20620;BME280;10469;42.720;23.252;2024-02-15T08:47:57;95446.44;;;11.55;78.44
20620;BME280;10469;42.720;23.252;2024-02-15T08:50:22;95441.91;;;11.56;72.99
20620;BME280;10469;42.720;23.252;2024-02-15T08:52:49;95442.59;;;11.03;75.83
20620;BME280;10469;42.720;23.252;2024-02-15T08:55:15;95457.22;;;10.89;77.71
20620;BME280;10469;42.720;23.252;2024-02-15T08:57:42;95451.38;;;10.12;80.61
20620;BME280;10469;42.720;23.252;2024-02-15T09:00:10;95431.28;;;10.64;77.35
20620;BME280;10469;42.720;23.252;2024-02-15T09:02:39;95448.41;;;9.38;82.87
20620;BME280;10469;42.720;23.252;2024-02-15T09:05:06;95443.78;;;9.52;80.70
20620;BME280;10469;42.720;23.252;2024-02-15T09:07:31;95440.97;;;9.40;82.75
20620;BME280;10469;42.720;23.252;2024-02-15T09:09:58;95431.59;;;11.41;78.94
20620;BME280;10469;42.720;23.252;2024-02-15T09:12:23;95427.41;;;10.42;75.16
20620;BME280;10469;42.720;23.252;2024-02-15T09:14:49;95442.16;;;10.69;77.49
20620;BME280;10469;42.720;23.252;2024-02-15T09:17:14;95430.34;;;14.22;70.25
20620;BME280;10469;42.720;23.252;2024-02-15T09:19:40;95437.41;;;11.80;68.87
20620;BME280;10469;42.720;23.252;2024-02-15T09:22:07;95427.56;;;12.74;69.80
20620;BME280;10469;42.720;23.252;2024-02-15T09:24:32;95430.63;;;15.64;61.95
20620;BME280;10469;42.720;23.252;2024-02-15T09:27:02;95433.19;;;14.32;61.23
20620;BME280;10469;42.720;23.252;2024-02-15T09:29:29;95424.81;;;12.86;66.10
20620;BME280;10469;42.720;23.252;2024-02-15T09:31:56;95426.38;;;12.70;66.75
20620;BME280;10469;42.720;23.252;2024-02-15T09:34:22;95435.06;;;11.12;70.70
20620;BME280;10469;42.720;23.252;2024-02-15T09:36:48;95419.41;;;10.10;75.67
20620;BME280;10469;42.720;23.252;2024-02-15T09:39:13;95420.56;;;10.46;74.76
20620;BME280;10469;42.720;23.252;2024-02-15T09:41:39;95421.91;;;10.37;77.19
20620;BME280;10469;42.720;23.252;2024-02-15T09:44:06;95412.59;;;11.24;76.57
20620;BME280;10469;42.720;23.252;2024-02-15T09:46:36;95419.16;;;12.00;74.55
20620;BME280;10469;42.720;23.252;2024-02-15T09:49:01;95413.91;;;11.64;71.98
20620;BME280;10469;42.720;23.252;2024-02-15T09:51:29;95406.81;;;13.39;69.09
20620;BME280;10469;42.720;23.252;2024-02-15T09:53:57;95419.13;;;11.59;68.75
20620;BME280;10469;42.720;23.252;2024-02-15T09:56:26;95410.03;;;12.25;71.03
20620;BME280;10469;42.720;23.252;2024-02-15T09:58:54;95404.91;;;11.70;69.35
20620;BME280;10469;42.720;23.252;2024-02-15T10:01:22;95397.78;;;14.85;61.22
20620;BME280;10469;42.720;23.252;2024-02-15T10:03:52;95401.13;;;13.86;61.43
20620;BME280;10469;42.720;23.252;2024-02-15T10:06:18;95396.72;;;14.47;60.89
20620;BME280;10469;42.720;23.252;2024-02-15T10:08:44;95390.19;;;13.75;61.46
20620;BME280;10469;42.720;23.252;2024-02-15T10:11:12;95386.97;;;14.85;60.93
20620;BME280;10469;42.720;23.252;2024-02-15T10:13:38;95390.25;;;11.96;65.01
20620;BME280;10469;42.720;23.252;2024-02-15T10:16:18;95393.34;;;11.69;66.58
20620;BME280;10469;42.720;23.252;2024-02-15T10:18:45;95377.56;;;11.19;66.80
20620;BME280;10469;42.720;23.252;2024-02-15T10:21:26;95386.38;;;11.80;69.81
20620;BME280;10469;42.720;23.252;2024-02-15T10:24:06;95367.72;;;14.20;62.62
20620;BME280;10469;42.720;23.252;2024-02-15T10:26:33;95363.25;;;12.38;64.12
20620;BME280;10469;42.720;23.252;2024-02-15T10:29:10;95375.34;;;11.58;66.86
20620;BME280;10469;42.720;23.252;2024-02-15T10:31:37;95364.69;;;11.93;67.86
20620;BME280;10469;42.720;23.252;2024-02-15T10:34:06;95362.31;;;11.32;68.37
20620;BME280;10469;42.720;23.252;2024-02-15T10:36:34;95345.47;;;12.48;67.52
20620;BME280;10469;42.720;23.252;2024-02-15T10:39:13;95353.72;;;14.40;60.65
20620;BME280;10469;42.720;23.252;2024-02-15T10:41:46;95359.84;;;12.94;62.02
20620;BME280;10469;42.720;23.252;2024-02-15T10:44:20;95356.59;;;13.21;61.94
20620;BME280;10469;42.720;23.252;2024-02-15T10:46:49;95343.91;;;13.04;62.42
20620;BME280;10469;42.720;23.252;2024-02-15T10:49:19;95340.06;;;15.13;61.32
20620;BME280;10469;42.720;23.252;2024-02-15T10:51:57;95345.28;;;14.97;57.52
20620;BME280;10469;42.720;23.252;2024-02-15T10:54:47;95347.34;;;12.48;63.32
20620;BME280;10469;42.720;23.252;2024-02-15T10:57:22;95342.34;;;14.55;59.86
20620;BME280;10469;42.720;23.252;2024-02-15T10:59:55;95333.91;;;11.77;64.25
20620;BME280;10469;42.720;23.252;2024-02-15T11:02:31;95347.19;;;12.66;64.47
20620;BME280;10469;42.720;23.252;2024-02-15T11:05:07;95337.41;;;13.17;64.84
20620;BME280;10469;42.720;23.252;2024-02-15T11:07:37;95324.75;;;13.63;65.50
20620;BME280;10469;42.720;23.252;2024-02-15T11:10:05;95337.03;;;14.43;63.86
20620;BME280;10469;42.720;23.252;2024-02-15T11:12:36;95319.81;;;15.15;59.32
20620;BME280;10469;42.720;23.252;2024-02-15T11:15:02;95331.97;;;13.58;61.09
20620;BME280;10469;42.720;23.252;2024-02-15T11:20:10;95324.13;;;12.18;65.50
20620;BME280;10469;42.720;23.252;2024-02-15T11:22:56;95333.22;;;12.41;67.51
20620;BME280;10469;42.720;23.252;2024-02-15T11:25:36;95320.50;;;14.18;63.17
20620;BME280;10469;42.720;23.252;2024-02-15T11:30:55;95308.69;;;16.93;53.56
20620;BME280;10469;42.720;23.252;2024-02-15T11:33:27;95311.00;;;17.42;54.12
20620;BME280;10469;42.720;23.252;2024-02-15T11:36:06;95303.97;;;17.92;52.21
20620;BME280;10469;42.720;23.252;2024-02-15T11:38:33;95307.78;;;13.79;57.33
20620;BME280;10469;42.720;23.252;2024-02-15T11:41:03;95294.06;;;13.02;61.34
20620;BME280;10469;42.720;23.252;2024-02-15T11:43:46;95317.94;;;11.94;66.61
20620;BME280;10469;42.720;23.252;2024-02-15T11:46:19;95295.72;;;12.63;65.29
20620;BME280;10469;42.720;23.252;2024-02-15T11:48:49;95309.19;;;13.20;64.90
20620;BME280;10469;42.720;23.252;2024-02-15T11:51:34;95310.44;;;13.29;65.96
20620;BME280;10469;42.720;23.252;2024-02-15T11:54:09;95304.25;;;12.31;66.20
20620;BME280;10469;42.720;23.252;2024-02-15T11:56:58;95304.09;;;13.86;62.79
20620;BME280;10469;42.720;23.252;2024-02-15T11:59:46;95298.94;;;14.40;62.92
20620;BME280;10469;42.720;23.252;2024-02-15T12:02:32;95303.19;;;14.52;61.68
20620;BME280;10469;42.720;23.252;2024-02-15T12:05:16;95303.78;;;12.74;64.87
20620;BME280;10469;42.720;23.252;2024-02-15T12:08:01;95299.19;;;12.35;65.21
20620;BME280;10469;42.720;23.252;2024-02-15T12:10:57;95294.56;;;12.18;67.00
20620;BME280;10469;42.720;23.252;2024-02-15T12:13:41;95275.31;;;12.78;69.01
20620;BME280;10469;42.720;23.252;2024-02-15T12:16:25;95288.56;;;13.42;65.10
20620;BME280;10469;42.720;23.252;2024-02-15T12:19:09;95275.97;;;16.47;59.58
20620;BME280;10469;42.720;23.252;2024-02-15T12:21:37;95275.38;;;16.35;56.65
20620;BME280;10469;42.720;23.252;2024-02-15T12:24:07;95278.84;;;15.23;55.38
20620;BME280;10469;42.720;23.252;2024-02-15T12:26:32;95278.34;;;15.86;55.79
20620;BME280;10469;42.720;23.252;2024-02-15T12:29:00;95276.00;;;14.20;60.34
20620;BME280;10469;42.720;23.252;2024-02-15T12:31:27;95274.19;;;14.65;60.38
20620;BME280;10469;42.720;23.252;2024-02-15T12:34:03;95282.91;;;12.81;62.69
20620;BME280;10469;42.720;23.252;2024-02-15T12:36:33;95280.25;;;13.27;64.97
20620;BME280;10469;42.720;23.252;2024-02-15T12:39:00;95280.06;;;12.60;66.34
20620;BME280;10469;42.720;23.252;2024-02-15T12:41:26;95275.25;;;10.86;70.57
20620;BME280;10469;42.720;23.252;2024-02-15T12:43:53;95277.34;;;12.19;71.51
20620;BME280;10469;42.720;23.252;2024-02-15T12:46:19;95281.84;;;12.54;67.01
20620;BME280;10469;42.720;23.252;2024-02-15T12:48:45;95272.50;;;10.74;71.78
20620;BME280;10469;42.720;23.252;2024-02-15T12:51:14;95278.28;;;11.43;72.08
20620;BME280;10469;42.720;23.252;2024-02-15T12:53:40;95257.34;;;12.67;69.95
20620;BME280;10469;42.720;23.252;2024-02-15T12:56:09;95254.88;;;12.94;68.50
20620;BME280;10469;42.720;23.252;2024-02-15T12:58:35;95257.13;;;12.17;69.97
20620;BME280;10469;42.720;23.252;2024-02-15T13:01:01;95260.69;;;11.70;72.70
20620;BME280;10469;42.720;23.252;2024-02-15T13:03:27;95266.63;;;11.96;72.30
20620;BME280;10469;42.720;23.252;2024-02-15T13:12:20;95259.22;;;13.12;67.14
20620;BME280;10469;42.720;23.252;2024-02-15T13:14:46;95251.19;;;12.84;65.85
20620;BME280;10469;42.720;23.252;2024-02-15T13:17:11;95252.41;;;10.65;71.95
20620;BME280;10469;42.720;23.252;2024-02-15T13:19:37;95260.88;;;10.80;75.60
20620;BME280;10469;42.720;23.252;2024-02-15T13:22:03;95263.97;;;10.65;76.52
20620;BME280;10469;42.720;23.252;2024-02-15T13:24:28;95251.47;;;11.01;78.73
20620;BME280;10469;42.720;23.252;2024-02-15T13:26:54;95250.28;;;11.62;75.72
20620;BME280;10469;42.720;23.252;2024-02-15T13:29:21;95254.13;;;10.89;76.51
20620;BME280;10469;42.720;23.252;2024-02-15T13:31:48;95245.91;;;10.72;78.10
20620;BME280;10469;42.720;23.252;2024-02-15T13:34:16;95254.22;;;10.83;79.02
20620;BME280;10469;42.720;23.252;2024-02-15T13:36:42;95250.84;;;10.09;79.51
20620;BME280;10469;42.720;23.252;2024-02-15T13:39:07;95247.91;;;10.47;80.07
20620;BME280;10469;42.720;23.252;2024-02-15T13:41:34;95249.06;;;10.02;80.65
20620;BME280;10469;42.720;23.252;2024-02-15T13:44:00;95249.72;;;10.16;82.97
20620;BME280;10469;42.720;23.252;2024-02-15T13:46:25;95231.22;;;10.75;79.69
20620;BME280;10469;42.720;23.252;2024-02-15T13:48:51;95248.66;;;10.84;78.63
20620;BME280;10469;42.720;23.252;2024-02-15T13:51:16;95249.97;;;11.05;79.33
20620;BME280;10469;42.720;23.252;2024-02-15T13:53:42;95224.59;;;10.47;81.59
20620;BME280;10469;42.720;23.252;2024-02-15T13:56:08;95249.97;;;10.33;83.33
20620;BME280;10469;42.720;23.252;2024-02-15T13:58:35;95248.66;;;10.17;84.69